Time;durP1;ratioP1;P1;durP2;ratioP2;P2;SDS_P1;SDS_P2;PMS_P1;PMS_P2;Temp;Humidity;BMP_temperature;BMP_pressure;BME280_temperature;BME280_humidity;BME280_pressure;Samples;Min_cycle;Max_cycle;Signal;HPM_P1;HPM_P2
2022/06/14 00:05:00;;;;;;;;;;;;;;;23.33;39.48;96184.34;10472313;28;1796;-62
2022/06/14 00:10:00;;;;;;;;;;;;;;;;;;10475074;28;1828;-62
2022/06/14 00:15:01;;;;;;;;;;;;;;;23.33;39.96;96179.06;10471910;28;1675;-62
2022/06/14 00:20:01;;;;;;;;;;;;;;;23.35;40.15;96184.84;10475171;28;1981;-62
2022/06/14 00:25:02;;;;;;;;;;;;;;;23.35;39.88;96184.84;10472934;28;1794;-61
2022/06/14 00:30:02;;;;;;;;;;;;;;;;;;10473644;28;1855;-61
2022/06/14 00:35:02;;;;;;;;;;;;;;;;;;10465972;28;1837;-62
2022/06/14 00:40:03;;;;;;;;;;;;;;;23.34;40.30;96188.59;10488284;28;1910;-62
2022/06/14 00:45:04;;;;;;;;;;;;;;;23.35;40.44;96179.56;10467791;28;2048;-61
2022/06/14 00:50:04;;;;;;;;;;;;;;;;;;10462733;28;1852;-61
2022/06/14 00:55:06;;;;;;;;;;;;;;;23.35;40.46;96177.72;10461757;28;1905;-61
2022/06/14 01:00:11;;;;;;;;;;;;;;;23.35;40.53;96174.28;10447264;28;1976;-60
2022/06/14 01:05:14;;;;;;;;;;;;;;;23.35;40.31;96179.56;10461016;28;1942;-62
2022/06/14 01:10:15;;;;;;;;;;;;;;;23.35;40.32;96174.28;10462521;28;1936;-59
2022/06/14 01:15:26;;;;;;;;;;;;;;;23.34;40.41;96178.00;10489186;28;1870;-60
2022/06/14 01:20:28;;;;;;;;;;;;;;;23.35;40.38;96176.91;10494730;28;1988;-62
2022/06/14 01:25:29;;;;;;;;;;;;;;;23.33;40.25;96171.13;10459584;28;1888;-62
2022/06/14 01:30:33;;;;;;;;;;;;;;;23.34;40.13;96175.34;10462444;28;1944;-60
2022/06/14 01:35:38;;;;;;;;;;;;;;;23.32;40.50;96164.25;10477553;28;1900;-63
2022/06/14 01:40:42;;;;;;;;;;;;;;;23.32;40.51;96159.78;10443758;28;2001;-62
2022/06/14 01:45:48;;;;;;;;;;;;;;;23.34;40.37;96164.78;10477650;28;1909;-61
2022/06/14 01:56:08;;;;;;;;;;;;;;;;;;10491032;28;1926;-62
2022/06/14 02:01:14;;;;;;;;;;;;;;;23.33;40.38;96163.19;10474356;28;1993;-62
2022/06/14 02:06:19;;;;;;;;;;;;;;;23.34;40.45;96156.84;10457463;28;1986;-59
2022/06/14 02:11:28;;;;;;;;;;;;;;;23.34;40.23;96156.84;10459879;28;1963;-62
2022/06/14 02:16:39;;;;;;;;;;;;;;;23.33;40.50;96155.25;10488872;28;1848;-62
2022/06/14 02:21:41;;;;;;;;;;;;;;;23.32;40.61;96153.69;10460738;28;1973;-61
2022/06/14 02:27:02;;;;;;;;;;;;;;;23.33;40.28;96157.88;10455634;28;1958;-60
2022/06/14 02:32:05;;;;;;;;;;;;;;;23.33;40.36;96157.88;10475867;28;1915;-61
2022/06/14 02:37:09;;;;;;;;;;;;;;;23.33;40.50;96155.25;10459225;28;1995;-59
2022/06/14 02:42:23;;;;;;;;;;;;;;;23.31;40.08;96152.84;10486379;28;1935;-61
2022/06/14 02:47:23;;;;;;;;;;;;;;;23.32;40.28;96143.91;10474257;28;2127;-60
2022/06/14 02:52:27;;;;;;;;;;;;;;;23.33;40.44;96149.97;10477465;28;1952;-61
2022/06/14 02:57:32;;;;;;;;;;;;;;;23.33;40.38;96157.88;10454208;28;1829;-60
2022/06/14 03:02:37;;;;;;;;;;;;;;;23.32;40.52;96153.69;10455815;28;1975;-61
2022/06/14 03:07:39;;;;;;;;;;;;;;;23.32;40.70;96158.97;10469472;28;1869;-61
2022/06/14 03:13:06;;;;;;;;;;;;;;;23.31;40.47;96155.50;10435322;28;2087;-62
2022/06/14 03:18:11;;;;;;;;;;;;;;;23.31;40.61;96154.72;10438548;28;2125;-61
2022/06/14 03:23:19;;;;;;;;;;;;;;;23.32;40.56;96158.97;10474516;28;1975;-62
2022/06/14 03:28:24;;;;;;;;;;;;;;;23.32;40.53;96164.25;10441092;28;1981;-63
2022/06/14 03:33:36;;;;;;;;;;;;;;;23.32;40.84;96161.63;10476259;28;1495;-61
2022/06/14 03:38:38;;;;;;;;;;;;;;;23.32;40.78;96157.13;10476728;28;1983;-63
2022/06/14 03:43:40;;;;;;;;;;;;;;;23.32;40.82;96151.03;10461357;28;1333;-62
2022/06/14 03:48:41;;;;;;;;;;;;;;;23.31;40.97;96154.72;10476642;28;1888;-61
2022/06/14 03:53:47;;;;;;;;;;;;;;;23.30;40.93;96159.22;10478102;28;1904;-63
2022/06/14 03:59:01;;;;;;;;;;;;;;;23.31;40.73;96154.72;10472519;28;1909;-60
2022/06/14 04:04:07;;;;;;;;;;;;;;;23.20;40.36;96155.91;10483701;28;1985;-60
2022/06/14 04:09:28;;;;;;;;;;;;;;;23.08;40.01;96163.44;10453319;28;2046;-59
2022/06/14 04:14:37;;;;;;;;;;;;;;;22.99;39.63;96170.38;10446639;28;1955;-62
2022/06/14 04:19:45;;;;;;;;;;;;;;;22.90;39.43;96164.91;10495679;28;1918;-62
2022/06/14 04:25:01;;;;;;;;;;;;;;;22.86;39.50;96160.44;10462329;28;1917;-62
2022/06/14 04:30:04;;;;;;;;;;;;;;;22.81;39.28;96161.28;10460049;28;2042;-62
2022/06/14 04:35:11;;;;;;;;;;;;;;;22.85;39.79;96149.09;10491413;28;1907;-63
2022/06/14 04:40:15;;;;;;;;;;;;;;;22.95;40.09;96158.78;10479798;28;1985;-63
2022/06/14 04:45:22;;;;;;;;;;;;;;;22.99;39.93;96159.81;10474620;28;1852;-63
2022/06/14 04:50:23;;;;;;;;;;;;;;;23.03;40.10;96172.19;10459909;28;2036;-63
2022/06/14 04:55:26;;;;;;;;;;;;;;;23.12;40.59;96175.03;10439572;28;1773;-62
2022/06/14 05:00:27;;;;;;;;;;;;;;;23.14;40.49;96167.59;10481632;28;1985;-62
2022/06/14 05:05:29;;;;;;;;;;;;;;;23.17;40.47;96164.38;10473154;28;1859;-68
2022/06/14 05:10:39;;;;;;;;;;;;;;;23.20;40.58;96161.19;10490291;28;1824;-63
2022/06/14 05:15:57;;;;;;;;;;;;;;;23.21;40.74;96158.25;10493311;28;1829;-61
2022/06/14 05:21:24;;;;;;;;;;;;;;;23.23;40.57;96156.13;10474852;28;1966;-62
2022/06/14 05:26:28;;;;;;;;;;;;;;;23.22;40.29;96161.69;10474506;28;1923;-61
2022/06/14 05:31:29;;;;;;;;;;;;;;;23.27;40.74;96161.63;10458014;28;1810;-61
2022/06/14 05:36:53;;;;;;;;;;;;;;;23.28;40.74;96168.50;10478522;28;1848;-62
2022/06/14 05:41:57;;;;;;;;;;;;;;;23.28;41.26;96169.31;10460334;28;2207;-63
2022/06/14 05:47:01;;;;;;;;;;;;;;;23.28;40.76;96171.16;10438729;28;1970;-61
2022/06/14 05:52:01;;;;;;;;;;;;;;;23.30;41.35;96174.31;10463750;28;1784;-61
2022/06/14 05:57:04;;;;;;;;;;;;;;;23.33;41.82;96179.06;10472744;28;1922;-59
2022/06/14 06:02:13;;;;;;;;;;;;;;;23.33;41.41;96176.41;10453407;28;1918;-61
2022/06/14 06:07:15;;;;;;;;;;;;;;;23.36;41.48;96187.25;10453021;28;2197;-59
2022/06/14 06:12:17;;;;;;;;;;;;;;;23.37;41.65;96174.78;10458739;28;1873;-62
2022/06/14 06:17:20;;;;;;;;;;;;;;;23.39;41.74;96177.94;10440140;28;1899;-62
2022/06/14 06:22:26;;;;;;;;;;;;;;;23.39;41.91;96175.28;10472273;28;1985;-59
2022/06/14 06:27:35;;;;;;;;;;;;;;;23.40;41.87;96177.66;10468171;28;2194;-60
2022/06/14 06:32:35;;;;;;;;;;;;;;;23.41;42.12;96178.47;10490905;28;1824;-61
2022/06/14 06:37:41;;;;;;;;;;;;;;;23.43;41.98;96184.25;10455906;28;1875;-58
2022/06/14 06:42:44;;;;;;;;;;;;;;;23.43;42.12;96187.69;10453304;28;1973;-62
2022/06/14 06:47:44;;;;;;;;;;;;;;;23.57;41.89;96181.72;10476191;28;1930;-59
2022/06/14 06:52:44;;;;;;;;;;;;;;;23.69;41.77;96185.53;10468993;28;1819;-62
2022/06/14 06:57:45;;;;;;;;;;;;;;;23.82;42.24;96174.25;10450218;28;1834;-62
2022/06/14 07:02:50;;;;;;;;;;;;;;;23.90;41.86;96176.28;10456061;28;1973;-59
2022/06/14 07:07:51;;;;;;;;;;;;;;;24.00;42.11;96173.50;10472081;28;1856;-63
2022/06/14 07:12:54;;;;;;;;;;;;;;;24.17;41.93;96175.69;10454881;28;1837;-63
2022/06/14 07:17:57;;;;;;;;;;;;;;;24.27;41.78;96177.41;10470017;28;2086;-62
2022/06/14 07:23:13;;;;;;;;;;;;;;;24.29;41.88;96184.00;10455814;28;1919;-58
2022/06/14 07:28:32;;;;;;;;;;;;;;;24.33;42.03;96179.72;10469382;28;2343;-57
2022/06/14 07:33:32;;;;;;;;;;;;;;;24.41;42.17;96183.56;10465559;28;1813;-62
2022/06/14 07:38:54;;;;;;;;;;;;;;;24.45;41.71;96179.25;10483737;28;1914;-59
2022/06/14 07:43:56;;;;;;;;;;;;;;;24.45;41.86;96171.31;10468252;28;2134;-61
2022/06/14 07:48:58;;;;;;;;;;;;;;;24.48;41.87;96168.91;10465302;28;1996;-61
2022/06/14 07:54:01;;;;;;;;;;;;;;;24.51;41.27;96160.34;10458727;28;2221;-62
2022/06/14 07:59:02;;;;;;;;;;;;;;;24.50;41.24;96163.31;10459885;28;2368;-57
2022/06/14 08:04:08;;;;;;;;;;;;;;;24.53;41.68;96165.34;10466026;28;1979;-61
2022/06/14 08:09:14;;;;;;;;;;;;;;;24.53;41.32;96166.16;10482010;28;1780;-62
2022/06/14 08:14:17;;;;;;;;;;;;;;;24.58;41.62;96155.47;10474667;28;1740;-58
2022/06/14 08:19:25;;;;;;;;;;;;;;;24.60;41.81;96173.75;10446962;28;2046;-55
2022/06/14 08:24:27;;;;;;;;;;;;;;;24.61;41.63;96162.84;10478991;28;1824;-58
2022/06/14 08:29:30;;;;;;;;;;;;;;;24.60;41.72;96173.75;10450156;28;2378;-60
2022/06/14 08:34:33;;;;;;;;;;;;;;;24.63;41.87;96168.66;10472519;28;1762;-59
2022/06/14 08:39:34;;;;;;;;;;;;;;;24.62;41.73;96163.63;10478452;28;1930;-58
2022/06/14 08:44:36;;;;;;;;;;;;;;;24.66;41.75;96156.69;10470965;28;1772;-61
2022/06/14 08:49:43;;;;;;;;;;;;;;;24.60;41.56;96163.13;10454952;28;1927;-61
2022/06/14 08:55:06;;;;;;;;;;;;;;;24.57;41.86;96163.69;10476390;28;1825;-63
2022/06/14 09:00:08;;;;;;;;;;;;;;;24.59;42.42;96156.25;10460354;28;1967;-61
2022/06/14 09:05:20;;;;;;;;;;;;;;;24.61;41.96;96156.75;10441167;28;1991;-61
2022/06/14 09:10:20;;;;;;;;;;;;;;;24.58;42.57;96155.47;10458513;28;1855;-59
2022/06/14 09:15:21;;;;;;;;;;;;;;;24.60;42.42;96145.38;10474206;28;1989;-57
2022/06/14 09:20:39;;;;;;;;;;;;;;;24.57;42.34;96148.59;10478110;28;1910;-59
2022/06/14 09:25:46;;;;;;;;;;;;;;;24.72;41.90;96150.22;10484006;28;2264;-62
2022/06/14 09:30:46;;;;;;;;;;;;;;;24.73;42.35;96146.50;10471631;28;1808;-61
2022/06/14 09:36:07;;;;;;;;;;;;;;;24.71;42.00;96149.44;10457543;28;1753;-61
2022/06/14 09:41:27;;;;;;;;;;;;;;;24.75;41.99;96152.34;10461480;28;1973;-55
2022/06/14 09:46:44;;;;;;;;;;;;;;;24.75;42.15;96152.34;10468731;28;2141;-60
2022/06/14 09:52:04;;;;;;;;;;;;;;;24.77;42.40;96147.53;10457765;28;1891;-62
2022/06/14 09:57:14;;;;;;;;;;;;;;;24.83;42.50;96149.00;10471523;28;1840;-60
2022/06/14 10:02:29;;;;;;;;;;;;;;;24.75;42.54;96154.97;10455356;28;1938;-61
2022/06/14 10:07:29;;;;;;;;;;;;;;;24.81;42.49;96143.22;10490461;28;1868;-59
2022/06/14 10:12:33;;;;;;;;;;;;;;;24.80;42.40;96138.97;10477943;28;1850;-62
2022/06/14 10:17:56;;;;;;;;;;;;;;;24.83;41.64;96130.47;10473690;28;1772;-63
2022/06/14 10:23:02;;;;;;;;;;;;;;;24.70;40.00;96136.47;10469559;28;1992;-64
2022/06/14 10:28:12;;;;;;;;;;;;;;;24.59;39.65;96124.44;10471208;28;1879;-63
2022/06/14 10:33:12;;;;;;;;;;;;;;;24.66;40.45;96123.00;10474666;28;1795;-61
2022/06/14 10:38:18;;;;;;;;;;;;;;;24.57;39.90;96126.59;10471512;28;1767;-60
2022/06/14 10:43:19;;;;;;;;;;;;;;;24.61;40.30;96122.28;10482867;28;1909;-59
2022/06/14 10:48:19;;;;;;;;;;;;;;;24.65;40.50;96120.63;10454339;28;1980;-61
2022/06/14 10:53:23;;;;;;;;;;;;;;;24.68;40.60;96125.38;10450437;28;1813;-62
2022/06/14 10:58:42;;;;;;;;;;;;;;;24.63;41.04;96120.13;10436424;28;1874;-58
2022/06/14 11:03:58;;;;;;;;;;;;;;;24.61;41.15;96119.63;10467960;28;1910;-59
2022/06/14 11:09:11;;;;;;;;;;;;;;;24.52;41.16;96118.75;10467842;28;1760;-57
2022/06/14 11:14:15;;;;;;;;;;;;;;;24.44;41.96;96111.47;10438290;28;2029;-59
2022/06/14 11:19:37;;;;;;;;;;;;;;;24.37;42.28;96103.88;10453941;28;1981;-60
2022/06/14 11:24:55;;;;;;;;;;;;;;;24.32;42.51;96106.59;10471121;28;1765;-61
2022/06/14 11:29:55;;;;;;;;;;;;;;;24.25;42.59;96099.00;10466011;28;1913;-60
2022/06/14 11:35:15;;;;;;;;;;;;;;;24.20;43.00;96091.16;10452643;28;1941;-60
2022/06/14 11:40:23;;;;;;;;;;;;;;;24.20;43.03;96101.75;10486718;28;1964;-60
2022/06/14 11:45:26;;;;;;;;;;;;;;;24.12;41.72;96096.31;10470311;28;1867;-58
2022/06/14 11:50:45;;;;;;;;;;;;;;;24.08;41.88;96095.31;10452327;28;1815;-57
2022/06/14 11:55:48;;;;;;;;;;;;;;;24.07;42.21;96083.91;10454319;28;1786;-58
2022/06/14 12:00:49;;;;;;;;;;;;;;;24.08;42.76;96080.22;10452859;28;1946;-58
2022/06/14 12:05:52;;;;;;;;;;;;;;;24.12;43.20;96072.47;10464099;28;1926;-58
2022/06/14 12:10:56;;;;;;;;;;;;;;;24.13;42.98;96072.16;10460810;28;1836;-57
2022/06/14 12:16:02;;;;;;;;;;;;;;;24.12;43.17;96067.97;10439449;28;1857;-59
2022/06/14 12:21:08;;;;;;;;;;;;;;;24.13;43.17;96064.22;10454931;28;1921;-58
2022/06/14 12:26:36;;;;;;;;;;;;;;;24.12;43.26;96065.31;10433382;28;1825;-57
2022/06/14 12:31:43;;;;;;;;;;;;;;;24.13;43.66;96068.75;10455445;28;1851;-58
2022/06/14 12:36:56;;;;;;;;;;;;;;;24.12;43.48;96057.38;10474884;28;1859;-56
2022/06/14 12:41:57;;;;;;;;;;;;;;;24.13;43.57;96061.56;10443896;28;1971;-59
2022/06/14 12:47:00;;;;;;;;;;;;;;;24.11;43.69;96061.06;10458073;28;1894;-60
2022/06/14 12:52:15;;;;;;;;;;;;;;;24.08;43.44;96051.06;10494319;28;1851;-59
2022/06/14 12:57:19;;;;;;;;;;;;;;;24.07;43.78;96044.19;10474205;28;2042;-58
2022/06/14 13:02:19;;;;;;;;;;;;;;;24.09;43.83;96039.38;10489693;28;1902;-57
2022/06/14 13:07:23;;;;;;;;;;;;;;;24.10;43.82;96033.03;10475885;28;1859;-57
2022/06/14 13:12:29;;;;;;;;;;;;;;;24.12;44.00;96030.88;10442501;28;1788;-59
2022/06/14 13:17:49;;;;;;;;;;;;;;;24.12;44.24;96038.81;10491767;28;1831;-58
2022/06/14 13:23:01;;;;;;;;;;;;;;;24.13;44.10;96032.44;10475631;28;1975;-58
2022/06/14 13:28:09;;;;;;;;;;;;;;;24.12;43.94;96022.94;10471678;28;1799;-58
2022/06/14 13:33:42;;;;;;;;;;;;;;;24.12;44.15;96024.78;10475360;28;1725;-60
2022/06/14 13:39:00;;;;;;;;;;;;;;;24.13;44.17;96026.38;10444803;28;1808;-59
2022/06/14 13:44:05;;;;;;;;;;;;;;;24.11;44.81;96018.69;10477577;28;1559;-59
2022/06/14 13:49:27;;;;;;;;;;;;;;;24.13;44.53;96007.84;10457958;28;1820;-59
2022/06/14 13:54:27;;;;;;;;;;;;;;;24.11;44.84;96002.81;10474876;28;1773;-59
2022/06/14 13:59:31;;;;;;;;;;;;;;;24.09;44.53;96012.91;10457224;28;1906;-59
2022/06/14 14:04:40;;;;;;;;;;;;;;;24.09;44.27;96010.25;10485654;28;1812;-57
2022/06/14 14:09:47;;;;;;;;;;;;;;;24.08;44.27;95998.09;10471645;28;1852;-62
2022/06/14 14:14:47;;;;;;;;;;;;;;;24.08;44.31;95998.09;10452406;28;1837;-57
2022/06/14 14:20:07;;;;;;;;;;;;;;;24.07;44.29;96004.47;10457662;28;1915;-61
2022/06/14 14:25:11;;;;;;;;;;;;;;;24.06;44.27;95989.66;10454979;28;2197;-61
2022/06/14 14:30:11;;;;;;;;;;;;;;;24.06;44.73;95984.38;10486159;28;2141;-60
2022/06/14 14:35:16;;;;;;;;;;;;;;;24.07;44.42;95980.63;10476871;28;1858;-63
2022/06/14 14:40:18;;;;;;;;;;;;;;;24.06;44.42;95971.13;10467244;28;1914;-60
2022/06/14 14:45:20;;;;;;;;;;;;;;;24.06;44.91;95981.72;10453943;28;1837;-59
2022/06/14 14:50:40;;;;;;;;;;;;;;;24.04;44.93;95964.53;10486803;28;1817;-60
2022/06/14 14:55:45;;;;;;;;;;;;;;;24.04;44.69;95968.00;10488001;28;1811;-56
2022/06/14 15:06:34;;;;;;;;;;;;;;;24.08;45.15;95958.38;10468685;28;1847;-61
2022/06/14 15:11:54;;;;;;;;;;;;;;;24.11;45.18;95955.13;10432607;28;1796;-61
2022/06/14 15:22:17;;;;;;;;;;;;;;;24.13;45.24;95947.69;10473622;28;2004;-61
2022/06/14 15:27:18;;;;;;;;;;;;;;;24.11;45.71;95939.25;10482797;28;2265;-59
2022/06/14 15:32:25;;;;;;;;;;;;;;;24.13;45.40;95937.09;10454839;28;2167;-57
2022/06/14 15:37:33;;;;;;;;;;;;;;;24.14;45.56;95941.31;10453853;28;1468;-59
2022/06/14 15:42:46;;;;;;;;;;;;;;;24.14;45.39;95930.72;10453941;28;1987;-58
2022/06/14 15:47:49;;;;;;;;;;;;;;;24.14;45.65;95928.09;10452035;28;1827;-59
2022/06/14 15:52:50;;;;;;;;;;;;;;;24.12;45.68;95929.44;10455122;28;1967;-61
2022/06/14 15:57:57;;;;;;;;;;;;;;;24.14;45.82;95922.00;10475208;28;1848;-61
2022/06/14 16:03:01;;;;;;;;;;;;;;;24.12;45.71;95930.25;10452439;28;1961;-62
2022/06/14 16:08:04;;;;;;;;;;;;;;;24.12;45.76;95922.28;10487031;28;1902;-60
2022/06/14 16:13:18;;;;;;;;;;;;;;;24.12;46.08;95924.94;10491911;28;2229;-62
2022/06/14 16:18:19;;;;;;;;;;;;;;;24.13;46.21;95915.16;10477396;28;1894;-61
2022/06/14 16:23:19;;;;;;;;;;;;;;;24.13;45.18;95915.91;10466471;28;1909;-60
2022/06/14 16:28:31;;;;;;;;;;;;;;;24.09;44.29;95914.91;10492093;28;1847;-59
2022/06/14 16:33:47;;;;;;;;;;;;;;;24.04;43.58;95915.03;10478505;28;1843;-60
2022/06/14 16:39:07;;;;;;;;;;;;;;;24.01;43.49;95909.47;10446504;28;1871;-60
2022/06/14 16:44:12;;;;;;;;;;;;;;;23.96;42.78;95899.78;10476417;28;1678;-59
2022/06/14 16:49:19;;;;;;;;;;;;;;;23.93;42.81;95903.00;10467038;28;2173;-60
2022/06/14 16:54:38;;;;;;;;;;;;;;;23.90;42.76;95895.66;10499948;28;1865;-62
2022/06/14 16:59:38;;;;;;;;;;;;;;;23.92;43.17;95901.44;10477846;28;2024;-60
2022/06/14 17:04:46;;;;;;;;;;;;;;;23.93;42.58;95900.34;10461162;28;1848;-61
2022/06/14 17:09:52;;;;;;;;;;;;;;;23.91;42.57;95897.22;10476226;28;1907;-63
2022/06/14 17:14:58;;;;;;;;;;;;;;;23.91;43.13;95896.41;10475426;28;1993;-58
2022/06/14 17:20:07;;;;;;;;;;;;;;;23.94;43.09;95901.94;10471701;28;1905;-58
2022/06/14 17:25:14;;;;;;;;;;;;;;;23.94;43.18;95901.94;10439485;28;1803;-61
2022/06/14 17:30:14;;;;;;;;;;;;;;;23.95;43.28;95903.50;10457598;28;1797;-62
2022/06/14 17:35:16;;;;;;;;;;;;;;;23.95;43.30;95903.50;10477132;28;1857;-60
2022/06/14 17:40:17;;;;;;;;;;;;;;;23.96;43.55;95898.97;10483590;28;2017;-61
2022/06/14 17:45:19;;;;;;;;;;;;;;;23.97;43.71;95887.31;10489786;28;1816;-60
2022/06/14 17:50:24;;;;;;;;;;;;;;;23.96;43.51;95896.34;10458233;28;1851;-61
2022/06/14 17:55:51;;;;;;;;;;;;;;;23.97;43.72;95896.03;10456430;28;1901;-60
2022/06/14 18:00:56;;;;;;;;;;;;;;;23.98;43.62;95900.28;10457475;28;1989;-62
2022/06/14 18:05:57;;;;;;;;;;;;;;;23.97;43.49;95893.38;10471935;28;1946;-61
2022/06/14 18:11:18;;;;;;;;;;;;;;;23.97;43.55;95895.25;10485781;28;1911;-61
2022/06/14 18:16:20;;;;;;;;;;;;;;;23.97;43.76;95905.84;10461173;28;1862;-58
2022/06/14 18:21:23;;;;;;;;;;;;;;;23.97;43.79;95900.53;10455878;28;1975;-61
2022/06/14 18:26:23;;;;;;;;;;;;;;;23.96;44.03;95906.94;10453590;28;1873;-60
2022/06/14 18:31:29;;;;;;;;;;;;;;;23.96;43.95;95905.06;10457161;28;1854;-60
2022/06/14 18:36:48;;;;;;;;;;;;;;;23.97;43.71;95905.84;10472660;28;1538;-57
2022/06/14 18:41:48;;;;;;;;;;;;;;;23.96;43.79;95898.97;10451891;28;2142;-60
2022/06/14 18:47:17;;;;;;;;;;;;;;;23.95;43.80;95906.13;10459511;28;1794;-59
2022/06/14 18:52:24;;;;;;;;;;;;;;;23.96;44.17;95905.06;10449711;28;1884;-61
2022/06/14 18:57:24;;;;;;;;;;;;;;;23.89;43.18;95909.94;10471561;28;1815;-60
2022/06/14 19:02:35;;;;;;;;;;;;;;;23.51;37.45;95905.81;10477432;28;1921;-60
2022/06/14 19:07:45;;;;;;;;;;;;;;;23.23;36.46;95906.72;10447013;28;1801;-57
2022/06/14 19:12:51;;;;;;;;;;;;;;;23.09;36.15;95911.16;10473923;28;1839;-59
2022/06/14 19:18:10;;;;;;;;;;;;;;;22.97;36.13;95902.84;10492103;28;2061;-59
2022/06/14 19:23:19;;;;;;;;;;;;;;;22.91;36.64;95906.63;10470570;28;1970;-59
2022/06/14 19:28:38;;;;;;;;;;;;;;;22.91;36.69;95904.00;10490518;28;1851;-59
2022/06/14 19:33:40;;;;;;;;;;;;;;;22.89;36.76;95906.13;10484754;28;1770;-60
2022/06/14 19:38:44;;;;;;;;;;;;;;;22.86;36.87;95911.97;10476988;28;1940;-60
2022/06/14 19:43:44;;;;;;;;;;;;;;;22.85;36.72;95915.72;10492700;28;1902;-59
2022/06/14 19:54:09;;;;;;;;;;;;;;;22.82;37.28;95921.53;10491926;28;1886;-60
2022/06/14 19:59:11;;;;;;;;;;;;;;;22.80;37.39;95926.31;10479244;28;1843;-58
2022/06/14 20:04:16;;;;;;;;;;;;;;;22.80;37.43;95935.06;10492403;28;1906;-57
2022/06/14 20:09:21;;;;;;;;;;;;;;;22.79;37.47;95927.41;10476119;28;1827;-59
2022/06/14 20:14:22;;;;;;;;;;;;;;;22.71;37.68;95931.44;10494383;28;1821;-57
2022/06/14 20:19:29;;;;;;;;;;;;;;;22.68;37.71;95939.94;10506461;28;1978;-60
2022/06/14 20:24:30;;;;;;;;;;;;;;;22.67;37.75;95933.88;10476296;28;1891;-59
2022/06/14 20:29:31;;;;;;;;;;;;;;;22.65;37.61;95936.00;10509867;28;1789;-58
2022/06/14 20:34:32;;;;;;;;;;;;;;;22.61;37.81;95936.84;10501598;28;1861;-60
2022/06/14 20:39:35;;;;;;;;;;;;;;;22.57;37.67;95933.97;10494914;28;1910;-59
2022/06/14 20:44:37;;;;;;;;;;;;;;;22.49;38.13;95934.59;10465493;28;1824;-59
2022/06/14 20:49:39;;;;;;;;;;;;;;;22.48;38.10;95933.00;10471172;28;1730;-60
2022/06/14 20:54:40;;;;;;;;;;;;;;;22.48;38.26;95930.34;10466681;28;1857;-57
2022/06/14 20:59:42;;;;;;;;;;;;;;;22.42;37.99;95928.06;10445878;28;1981;-60
2022/06/14 21:04:43;;;;;;;;;;;;;;;22.38;37.89;95929.72;10445441;28;1695;-58
2022/06/14 21:09:51;;;;;;;;;;;;;;;22.35;38.01;95932.88;10446472;28;1886;-61
2022/06/14 21:15:07;;;;;;;;;;;;;;;22.35;38.07;95930.25;10475843;28;1797;-61
2022/06/14 21:20:08;;;;;;;;;;;;;;;22.34;37.85;95931.34;10447443;28;1977;-60
2022/06/14 21:25:09;;;;;;;;;;;;;;;22.28;37.77;95927.94;10476966;28;1860;-59
2022/06/14 21:30:14;;;;;;;;;;;;;;;22.23;37.88;95928.00;10491594;28;1996;-60
2022/06/14 21:35:15;;;;;;;;;;;;;;;22.22;37.76;95934.34;10476113;28;1785;-61
2022/06/14 21:40:32;;;;;;;;;;;;;;;22.16;38.10;95935.47;10456334;28;1965;-61
2022/06/14 21:45:33;;;;;;;;;;;;;;;22.19;37.98;95934.91;10478947;28;1797;-60
2022/06/14 21:50:33;;;;;;;;;;;;;;;22.11;37.92;95937.38;10463174;28;1811;-60
2022/06/14 21:55:40;;;;;;;;;;;;;;;22.00;37.93;95926.09;10459010;28;1839;-61
2022/06/14 22:00:41;;;;;;;;;;;;;;;22.01;37.71;95935.59;10479314;28;1969;-60
2022/06/14 22:05:42;;;;;;;;;;;;;;;21.98;37.91;95925.59;10477315;28;1817;-60
2022/06/14 22:10:43;;;;;;;;;;;;;;;21.94;38.05;95926.44;10476740;28;1965;-58
2022/06/14 22:15:43;;;;;;;;;;;;;;;21.91;37.82;95925.13;10476973;28;1794;-61
2022/06/14 22:20:44;;;;;;;;;;;;;;;21.88;38.17;95923.06;10459703;28;1901;-60
2022/06/14 22:25:44;;;;;;;;;;;;;;;21.85;38.03;95926.22;10460202;28;1639;-60
2022/06/14 22:30:45;;;;;;;;;;;;;;;21.83;38.13;95918.59;10458805;28;1861;-61
2022/06/14 22:35:45;;;;;;;;;;;;;;;21.80;38.37;95910.44;10462346;28;1760;-60
2022/06/14 22:40:46;;;;;;;;;;;;;;;21.75;38.38;95907.81;10441660;28;2234;-60
2022/06/14 22:45:46;;;;;;;;;;;;;;;21.68;38.78;95917.88;10455366;28;1793;-60
2022/06/14 22:50:46;;;;;;;;;;;;;;;21.49;39.08;95917.00;10494398;28;1872;-58
2022/06/14 22:55:47;;;;;;;;;;;;;;;21.33;39.19;95910.25;10486971;28;1796;-58
2022/06/14 23:00:47;;;;;;;;;;;;;;;21.22;39.39;95904.25;10458105;28;1977;-58
2022/06/14 23:05:48;;;;;;;;;;;;;;;21.13;39.69;95902.47;10475856;28;1710;-59
2022/06/14 23:10:49;;;;;;;;;;;;;;;21.01;39.87;95900.94;10459357;28;1831;-59
2022/06/14 23:15:49;;;;;;;;;;;;;;;20.94;40.01;95897.81;10488123;28;1847;-59
2022/06/14 23:20:49;;;;;;;;;;;;;;;21.01;40.18;95892.22;10457901;28;1922;-60
2022/06/14 23:25:50;;;;;;;;;;;;;;;21.08;40.07;95897.25;10468133;28;1835;-58
2022/06/14 23:30:54;;;;;;;;;;;;;;;21.08;40.45;95904.06;10477450;28;1832;-59
2022/06/14 23:35:55;;;;;;;;;;;;;;;21.15;40.16;95887.16;10472324;28;1871;-59
2022/06/14 23:40:57;;;;;;;;;;;;;;;21.14;40.25;95891.66;10483616;28;1989;-58
2022/06/14 23:45:57;;;;;;;;;;;;;;;21.05;40.65;95883.53;10484845;28;1848;-60
2022/06/14 23:50:58;;;;;;;;;;;;;;;21.04;40.66;95881.94;10490522;28;1820;-60
2022/06/14 23:55:59;;;;;;;;;;;;;;;20.98;40.82;95880.38;10455688;28;1806;-58
